Time;durP1;ratioP1;P1;durP2;ratioP2;P2;SDS_P1;SDS_P2;PMS_P1;PMS_P2;Temp;Humidity;BMP_temperature;BMP_pressure;BME280_temperature;BME280_humidity;BME280_pressure;Samples;Min_cycle;Max_cycle;Signal;HPM_P1;HPM_P2
2024/01/03 00:02:00;;;;;;;11.82;1.33;;;11.60;99.90;;;;;;4159688;28;20161;-93
2024/01/03 00:04:01;;;;;;;15.32;1.75;;;11.50;99.90;;;;;;4140652;28;20589;-94
2024/01/03 00:06:07;;;;;;;6.32;0.90;;;11.40;99.90;;;;;;4144123;28;20228;-96
2024/01/03 00:08:17;;;;;;;4.10;0.80;;;11.40;99.90;;;;;;4160161;28;20165;-93
2024/01/03 00:10:56;;;;;;;10.45;0.70;;;11.50;99.90;;;;;;4155000;28;20259;-93
2024/01/03 00:12:58;;;;;;;7.50;0.90;;;11.50;99.90;;;;;;4108495;28;20167;-93
2024/01/03 00:15:35;;;;;;;7.20;0.68;;;11.60;99.90;;;;;;4141744;28;20180;-93
2024/01/03 00:17:36;;;;;;;1.45;0.32;;;11.60;99.90;;;;;;4140644;28;20213;-95
2024/01/03 00:19:40;;;;;;;5.20;0.40;;;11.50;99.90;;;;;;4157870;28;20169;-96
2024/01/03 00:21:41;;;;;;;3.05;0.90;;;11.50;99.90;;;;;;4139622;28;20170;-94
2024/01/03 00:23:57;;;;;;;3.63;0.47;;;11.50;99.90;;;;;;4140662;28;20196;-95
2024/01/03 00:25:58;;;;;;;2.13;0.47;;;11.60;99.90;;;;;;4156921;28;20715;-95
2024/01/03 00:28:19;;;;;;;1.33;0.50;;;11.50;99.90;;;;;;4156443;28;20248;-94
2024/01/03 00:30:20;;;;;;;4.85;0.68;;;11.50;99.90;;;;;;4160490;28;20193;-93
2024/01/03 00:32:22;;;;;;;6.80;0.63;;;11.40;99.90;;;;;;4156220;28;20188;-93
2024/01/03 00:34:41;;;;;;;1.92;0.40;;;11.40;99.90;;;;;;4137209;28;20188;-93
2024/01/03 00:37:02;;;;;;;5.93;1.15;;;11.40;99.90;;;;;;4142318;28;20216;-93
2024/01/03 00:39:05;;;;;;;6.78;1.33;;;11.40;99.90;;;;;;4155845;28;20177;-93
2024/01/03 00:41:12;;;;;;;3.40;0.70;;;11.40;99.90;;;;;;4126992;28;20182;-95
2024/01/03 00:43:13;;;;;;;6.50;0.43;;;11.40;99.90;;;;;;4136590;28;20174;-93
2024/01/03 00:45:17;;;;;;;0.32;0.25;;;11.40;99.90;;;;;;4158964;28;20188;-93
2024/01/03 00:47:23;;;;;;;7.07;1.02;;;11.40;99.90;;;;;;4158636;28;20215;-96
2024/01/03 00:49:25;;;;;;;3.25;0.82;;;11.30;99.90;;;;;;4158068;28;20172;-93
2024/01/03 00:51:29;;;;;;;1.98;0.73;;;11.40;99.90;;;;;;4159159;28;20255;-95
2024/01/03 00:53:32;;;;;;;0.77;0.57;;;11.40;99.90;;;;;;4154791;28;20189;-93
2024/01/03 00:55:34;;;;;;;9.35;1.67;;;11.30;99.90;;;;;;4138992;28;20716;-94
2024/01/03 00:57:36;;;;;;;2.70;0.60;;;11.30;99.90;;;;;;4140842;28;20197;-94
2024/01/03 00:59:39;;;;;;;2.20;0.28;;;11.20;99.90;;;;;;4159117;28;20196;-93
2024/01/03 01:01:41;;;;;;;4.72;0.15;;;11.20;99.90;;;;;;4142553;28;20158;-94
2024/01/03 01:03:42;;;;;;;8.85;0.57;;;11.20;99.90;;;;;;4154709;28;20177;-95
2024/01/03 01:05:46;;;;;;;1.10;0.40;;;11.10;99.90;;;;;;4160349;28;20223;-93
2024/01/03 01:07:48;;;;;;;10.30;1.50;;;11.10;99.90;;;;;;4157310;28;20192;-96
2024/01/03 01:09:49;;;;;;;9.80;1.00;;;11.10;99.90;;;;;;4159135;28;20176;-96
2024/01/03 01:11:56;;;;;;;3.08;0.60;;;11.10;99.90;;;;;;4139907;28;20276;-94
2024/01/03 01:14:00;;;;;;;2.72;0.30;;;11.10;99.90;;;;;;4138440;28;20204;-93
2024/01/03 01:16:01;;;;;;;8.88;0.68;;;11.10;99.90;;;;;;4156621;28;20201;-94
2024/01/03 01:18:04;;;;;;;2.05;0.30;;;11.00;99.90;;;;;;4139627;28;20216;-93
2024/01/03 01:20:05;;;;;;;0.52;0.25;;;11.10;99.90;;;;;;4140786;28;20181;-92
2024/01/03 01:22:06;;;;;;;5.05;0.90;;;11.10;99.90;;;;;;4140750;28;20178;-94
2024/01/03 01:24:07;;;;;;;7.53;1.30;;;11.10;99.90;;;;;;4140640;28;20180;-96
2024/01/03 01:26:09;;;;;;;9.88;0.45;;;11.10;99.90;;;;;;4155696;28;20192;-93
2024/01/03 01:28:14;;;;;;;6.63;0.82;;;11.00;99.90;;;;;;4153266;28;20219;-94
2024/01/03 01:30:17;;;;;;;2.17;0.77;;;11.00;99.90;;;;;;4128183;28;20607;-96
2024/01/03 01:32:23;;;;;;;5.20;0.77;;;11.00;99.90;;;;;;4140854;28;20257;-96
2024/01/03 01:34:26;;;;;;;8.25;1.02;;;11.00;99.90;;;;;;4140029;28;20172;-93
2024/01/03 01:36:26;;;;;;;6.97;0.65;;;11.00;99.90;;;;;;4142999;28;20244;-93
2024/01/03 01:38:27;;;;;;;4.18;0.70;;;11.00;99.90;;;;;;4142401;28;20166;-93
2024/01/03 01:40:29;;;;;;;3.75;1.05;;;10.90;99.90;;;;;;4153345;28;20192;-93
2024/01/03 01:42:37;;;;;;;1.40;0.73;;;10.90;99.90;;;;;;4140705;28;20182;-93
2024/01/03 01:44:45;;;;;;;0.60;0.45;;;10.90;99.90;;;;;;4174484;28;20223;-94
2024/01/03 01:46:47;;;;;;;2.60;0.60;;;10.90;99.90;;;;;;4141229;28;20196;-96
2024/01/03 01:48:53;;;;;;;2.17;0.50;;;10.90;99.90;;;;;;4169117;28;20180;-92
2024/01/03 01:50:54;;;;;;;6.25;0.68;;;10.80;99.90;;;;;;4158554;28;20227;-92
2024/01/03 01:52:59;;;;;;;2.85;0.32;;;10.80;99.90;;;;;;4154741;28;20184;-93
2024/01/03 01:55:01;;;;;;;1.90;0.38;;;10.80;99.90;;;;;;4154186;28;20173;-94
2024/01/03 01:57:04;;;;;;;1.70;0.45;;;10.80;99.90;;;;;;4172659;28;20704;-95
2024/01/03 01:59:07;;;;;;;6.80;1.02;;;10.90;99.90;;;;;;4139115;28;20157;-93
2024/01/03 02:01:08;;;;;;;14.55;1.42;;;11.00;99.90;;;;;;4139525;28;20189;-93
2024/01/03 02:03:19;;;;;;;4.15;0.77;;;11.00;99.90;;;;;;4155663;28;20215;-93
2024/01/03 02:05:21;;;;;;;4.45;0.93;;;10.90;99.90;;;;;;4143062;28;20164;-95
2024/01/03 02:07:27;;;;;;;5.53;0.70;;;11.00;99.90;;;;;;4154451;28;20185;-95
2024/01/03 02:09:31;;;;;;;2.78;0.63;;;11.00;99.90;;;;;;4157617;28;20278;-95
2024/01/03 02:11:43;;;;;;;6.53;0.73;;;11.00;99.90;;;;;;4159238;28;20169;-94
2024/01/03 02:13:47;;;;;;;5.55;1.40;;;11.00;99.90;;;;;;4158292;28;20201;-96
2024/01/03 02:15:52;;;;;;;5.70;0.60;;;10.90;99.90;;;;;;4141160;28;20201;-93
2024/01/03 02:17:56;;;;;;;5.35;0.90;;;10.80;99.90;;;;;;4155272;28;20172;-93
2024/01/03 02:20:00;;;;;;;1.25;0.28;;;10.80;99.90;;;;;;4154560;28;20220;-94
2024/01/03 02:22:01;;;;;;;3.30;0.60;;;10.80;99.90;;;;;;4146265;28;20212;-92
2024/01/03 02:24:07;;;;;;;6.63;0.60;;;10.80;99.90;;;;;;4155749;28;20200;-95
2024/01/03 02:26:09;;;;;;;3.95;0.45;;;10.80;99.90;;;;;;4160749;28;20236;-96
2024/01/03 02:28:10;;;;;;;8.10;1.02;;;10.80;99.90;;;;;;4156403;28;20184;-94
2024/01/03 02:30:11;;;;;;;3.35;0.90;;;10.80;99.90;;;;;;4156271;28;20169;-93
2024/01/03 02:32:13;;;;;;;1.95;0.55;;;10.90;99.90;;;;;;4143047;28;20237;-93
2024/01/03 02:34:14;;;;;;;1.65;0.63;;;10.90;99.90;;;;;;4158130;28;20172;-93
2024/01/03 02:36:15;;;;;;;4.57;1.15;;;10.90;99.90;;;;;;4142862;28;20269;-93
2024/01/03 02:38:22;;;;;;;5.07;0.55;;;10.90;99.90;;;;;;4157168;28;20181;-93
2024/01/03 02:40:23;;;;;;;2.15;0.43;;;10.90;99.90;;;;;;4158511;28;20264;-93
2024/01/03 02:42:27;;;;;;;0.22;0.10;;;10.90;99.90;;;;;;4156375;28;20193;-95
2024/01/03 02:44:31;;;;;;;4.55;0.77;;;10.80;99.90;;;;;;4143640;28;20158;-96
2024/01/03 02:46:39;;;;;;;1.27;0.30;;;10.70;99.90;;;;;;4158877;28;20200;-94
2024/01/03 02:48:40;;;;;;;3.70;0.55;;;10.60;99.90;;;;;;4155669;28;20190;-94
2024/01/03 02:50:48;;;;;;;3.17;0.65;;;10.60;99.90;;;;;;4158480;28;20176;-96
2024/01/03 02:52:51;;;;;;;6.00;0.50;;;10.50;99.90;;;;;;4143757;28;20181;-94
2024/01/03 02:54:55;;;;;;;2.75;0.20;;;10.50;99.90;;;;;;4142513;28;20185;-95
2024/01/03 02:56:59;;;;;;;5.03;0.88;;;10.50;99.90;;;;;;4162712;28;20217;-95
2024/01/03 02:59:01;;;;;;;2.63;0.52;;;10.50;99.90;;;;;;4158021;28;20278;-94
2024/01/03 03:01:04;;;;;;;1.55;0.52;;;10.50;99.90;;;;;;4158943;28;20176;-94
2024/01/03 03:03:17;;;;;;;1.67;0.45;;;10.50;99.90;;;;;;4163709;28;20714;-95
2024/01/03 03:05:58;;;;;;;0.70;0.35;;;10.60;99.90;;;;;;4164783;28;20168;-95
2024/01/03 03:08:03;;;;;;;2.00;0.10;;;10.50;99.90;;;;;;4143806;28;20189;-95
2024/01/03 03:10:07;;;;;;;2.30;0.30;;;10.40;99.90;;;;;;4144105;28;20186;-94
2024/01/03 03:12:32;;;;;;;7.57;1.15;;;10.50;99.90;;;;;;4147649;28;20181;-93
2024/01/03 03:15:24;;;;;;;5.50;0.65;;;10.40;99.90;;;;;;4174978;28;20183;-94
2024/01/03 03:17:30;;;;;;;2.50;0.50;;;10.20;99.90;;;;;;4165668;28;20226;-94
2024/01/03 03:19:37;;;;;;;3.28;1.17;;;10.20;99.90;;;;;;4143381;28;20182;-93
2024/01/03 03:21:43;;;;;;;2.80;0.40;;;10.30;99.90;;;;;;4162942;28;20160;-94
2024/01/03 03:23:54;;;;;;;1.95;0.47;;;10.40;99.90;;;;;;4159124;28;20250;-93
2024/01/03 03:25:58;;;;;;;3.40;1.00;;;10.40;99.90;;;;;;4159586;28;20200;-93
2024/01/03 03:28:07;;;;;;;4.57;0.30;;;10.40;99.90;;;;;;4158801;28;20180;-94
2024/01/03 03:30:22;;;;;;;7.63;0.65;;;10.50;99.90;;;;;;4161623;28;20192;-95
2024/01/03 03:32:45;;;;;;;1.70;0.50;;;10.30;99.90;;;;;;4161870;28;20779;-92
2024/01/03 03:35:05;;;;;;;5.97;1.10;;;10.30;99.90;;;;;;4154978;28;20252;-93
2024/01/03 03:37:09;;;;;;;6.95;0.55;;;10.10;99.90;;;;;;4143087;28;20237;-94
2024/01/03 03:39:09;;;;;;;1.35;0.38;;;10.00;99.90;;;;;;4165575;28;20196;-93
2024/01/03 03:41:19;;;;;;;3.35;0.60;;;10.10;99.90;;;;;;4146581;28;20693;-94
2024/01/03 03:43:27;;;;;;;8.15;0.80;;;10.10;99.90;;;;;;4157782;28;20180;-93
2024/01/03 03:45:32;;;;;;;6.28;1.27;;;10.20;99.90;;;;;;4159744;28;20211;-93
2024/01/03 03:48:09;;;;;;;5.47;1.35;;;10.20;99.90;;;;;;4163768;28;20215;-94
2024/01/03 03:50:36;;;;;;;8.07;1.17;;;10.10;99.90;;;;;;4145119;28;20190;-94
2024/01/03 03:52:41;;;;;;;0.88;0.20;;;10.10;99.90;;;;;;4161454;28;20196;-95
2024/01/03 03:54:48;;;;;;;5.00;0.75;;;10.30;99.90;;;;;;4163123;28;20185;-93
2024/01/03 03:56:56;;;;;;;0.73;0.28;;;10.30;99.90;;;;;;4143641;28;20244;-93
2024/01/03 03:59:00;;;;;;;3.72;0.68;;;10.20;99.90;;;;;;4160885;28;20183;-93
2024/01/03 04:01:04;;;;;;;0.47;0.20;;;10.30;99.90;;;;;;4142672;28;20181;-94
2024/01/03 04:03:16;;;;;;;1.60;0.30;;;10.20;99.90;;;;;;4161225;28;20185;-93
2024/01/03 04:05:41;;;;;;;3.22;1.02;;;10.20;99.90;;;;;;4148215;28;20181;-93
2024/01/03 04:07:47;;;;;;;0.28;0.13;;;10.20;99.90;;;;;;4142745;28;20193;-93
2024/01/03 04:09:48;;;;;;;4.50;0.68;;;10.20;99.90;;;;;;4140614;28;20180;-94
2024/01/03 04:12:14;;;;;;;4.45;0.52;;;10.30;99.90;;;;;;4140693;28;20185;-95
2024/01/03 04:14:39;;;;;;;2.30;0.65;;;10.20;99.90;;;;;;4142069;28;20166;-96
2024/01/03 04:16:59;;;;;;;4.03;0.30;;;10.20;99.90;;;;;;4159895;28;20712;-93
2024/01/03 04:19:23;;;;;;;3.25;0.75;;;10.20;99.90;;;;;;4164497;28;20192;-94
2024/01/03 04:21:59;;;;;;;1.67;0.47;;;10.10;99.90;;;;;;4162978;28;20260;-93
2024/01/03 04:24:20;;;;;;;7.20;0.63;;;10.20;99.90;;;;;;4162479;28;20185;-94
2024/01/03 04:26:28;;;;;;;2.70;0.45;;;10.20;99.90;;;;;;4163682;28;20260;-94
2024/01/03 04:28:40;;;;;;;4.80;1.60;;;10.20;99.90;;;;;;4163750;28;20224;-93
2024/01/03 04:30:56;;;;;;;7.43;0.85;;;10.10;99.90;;;;;;4163414;28;20203;-95
2024/01/03 04:33:25;;;;;;;1.27;0.40;;;10.00;99.90;;;;;;4165789;28;20169;-93
2024/01/03 04:35:28;;;;;;;6.90;0.98;;;10.00;99.90;;;;;;4149222;28;20177;-94
2024/01/03 04:40:40;;;;;;;4.85;0.93;;;10.00;99.90;;;;;;4177900;28;20261;-95
2024/01/03 04:43:02;;;;;;;3.80;0.90;;;10.00;99.90;;;;;;4163511;28;20197;-94
2024/01/03 04:45:08;;;;;;;9.32;1.70;;;9.90;99.90;;;;;;4177646;28;20183;-92
2024/01/03 04:47:32;;;;;;;3.10;0.40;;;9.90;99.90;;;;;;4180664;28;20199;-93
2024/01/03 04:49:39;;;;;;;6.75;0.82;;;9.90;99.90;;;;;;4173916;28;20171;-94
2024/01/03 04:51:58;;;;;;;14.23;0.50;;;9.90;99.90;;;;;;4179511;28;20169;-94
2024/01/03 04:54:04;;;;;;;5.65;0.70;;;9.80;99.90;;;;;;4162494;28;20236;-93
2024/01/03 04:56:13;;;;;;;2.47;0.50;;;9.90;99.90;;;;;;4175177;28;20234;-95
2024/01/03 04:58:17;;;;;;;7.05;0.73;;;10.00;99.90;;;;;;4160233;28;20173;-94
2024/01/03 05:00:20;;;;;;;7.47;0.80;;;10.00;99.90;;;;;;4156464;28;20181;-94
2024/01/03 05:02:24;;;;;;;7.35;0.80;;;10.10;99.90;;;;;;4158221;28;20192;-94
2024/01/03 05:04:28;;;;;;;8.15;1.35;;;10.10;99.90;;;;;;4157324;28;20643;-95
2024/01/03 05:06:43;;;;;;;7.82;1.15;;;10.10;99.90;;;;;;4193614;28;20198;-93
2024/01/03 05:08:50;;;;;;;5.32;0.40;;;10.20;99.90;;;;;;4177637;28;20179;-93
2024/01/03 05:11:11;;;;;;;3.55;0.60;;;10.20;99.90;;;;;;4180169;28;20186;-94
2024/01/03 05:13:40;;;;;;;5.85;0.85;;;10.20;99.90;;;;;;4166387;28;20251;-94
2024/01/03 05:15:41;;;;;;;2.47;1.20;;;10.10;99.90;;;;;;4161943;28;20181;-96
2024/01/03 05:18:10;;;;;;;5.03;1.05;;;10.10;99.90;;;;;;4178055;28;20211;-93
2024/01/03 05:20:14;;;;;;;4.35;0.50;;;10.10;99.90;;;;;;4177215;28;20224;-93
2024/01/03 05:22:25;;;;;;;4.47;0.65;;;10.10;99.90;;;;;;4161159;28;20188;-93
2024/01/03 05:24:29;;;;;;;4.03;0.65;;;10.20;99.90;;;;;;4161632;28;20272;-93
2024/01/03 05:26:39;;;;;;;4.57;1.13;;;10.20;99.90;;;;;;4215480;22;20254;-95
2024/01/03 05:28:53;;;;;;;7.68;2.45;;;10.10;99.90;;;;;;4175503;28;20175;-93
2024/01/03 05:31:02;;;;;;;3.03;0.70;;;10.10;99.90;;;;;;4175599;28;20162;-94
2024/01/03 05:33:10;;;;;;;8.63;1.02;;;10.00;99.90;;;;;;4176931;28;20205;-94
2024/01/03 05:35:11;;;;;;;17.90;1.52;;;10.10;99.90;;;;;;4156913;28;20184;-95
2024/01/03 05:48:22;;;;;;;6.65;1.85;;;10.20;99.90;;;;;;5035651;22;1437203;-94
2024/01/03 05:50:27;;;;;;;15.55;4.85;;;10.60;99.90;;;;;;5063085;23;20141;-93
2024/01/03 05:52:32;;;;;;;6.53;2.85;;;10.50;99.90;;;;;;5062472;23;20150;-94
2024/01/03 05:56:38;;;;;;;1.63;0.47;;;10.40;99.90;;;;;;5029862;23;20205;-95
2024/01/03 05:58:39;;;;;;;2.05;0.73;;;10.40;99.90;;;;;;4980806;23;20166;-95
2024/01/03 06:00:40;;;;;;;1.33;0.28;;;10.50;99.90;;;;;;4980856;23;20178;-91
2024/01/03 06:02:41;;;;;;;9.73;0.52;;;10.50;99.90;;;;;;5005133;23;20159;-93
2024/01/03 06:04:41;;;;;;;1.30;0.40;;;10.50;99.90;;;;;;4985112;23;20152;-93
2024/01/03 06:06:42;;;;;;;0.22;0.10;;;10.50;99.90;;;;;;5015511;23;20273;-91
2024/01/03 06:13:21;;;;;;;;;;;;;;;;;;;;;
2024/01/03 06:32:54;;;;;;;4.70;0.65;;;10.10;99.90;;;;;;5012648;23;20169;-93
2024/01/03 06:34:55;;;;;;;3.72;0.30;;;10.10;99.90;;;;;;5032239;23;20158;-93
2024/01/03 06:37:00;;;;;;;2.70;0.60;;;10.00;99.90;;;;;;5015840;23;20266;-94
2024/01/03 06:39:00;;;;;;;6.50;1.55;;;10.10;99.90;;;;;;5006909;23;20151;-93
2024/01/03 06:41:01;;;;;;;7.72;0.82;;;10.10;99.90;;;;;;5009318;23;20170;-94
2024/01/03 06:43:02;;;;;;;0.57;0.28;;;10.10;99.90;;;;;;5032342;23;20245;-93
2024/01/03 06:45:09;;;;;;;1.83;0.80;;;10.10;99.90;;;;;;5005174;23;20187;-93
2024/01/03 06:47:17;;;;;;;1.00;0.50;;;10.10;99.90;;;;;;5032378;23;20181;-92
2024/01/03 06:49:18;;;;;;;7.20;2.15;;;10.10;99.90;;;;;;5001426;23;20159;-92
2024/01/03 06:51:24;;;;;;;0.88;0.63;;;10.10;99.90;;;;;;5000584;23;20226;-93
2024/01/03 06:53:25;;;;;;;2.90;0.55;;;10.20;99.90;;;;;;5000905;23;20200;-93
2024/01/03 06:55:26;;;;;;;4.88;0.77;;;10.20;99.90;;;;;;5003252;23;20156;-93
2024/01/03 06:57:28;;;;;;;2.88;0.57;;;10.20;99.90;;;;;;4999856;23;20219;-92
2024/01/03 06:59:36;;;;;;;2.88;1.20;;;10.10;99.90;;;;;;5001780;23;20152;-93
2024/01/03 07:01:40;;;;;;;2.20;0.68;;;10.10;99.90;;;;;;5003227;23;20162;-93
2024/01/03 07:03:40;;;;;;;2.35;0.73;;;10.10;99.90;;;;;;4999821;23;20152;-92
2024/01/03 07:05:41;;;;;;;0.90;0.52;;;10.20;99.90;;;;;;5025985;23;20158;-94
2024/01/03 07:07:42;;;;;;;6.80;0.50;;;10.30;99.90;;;;;;5002978;23;20176;-93
2024/01/03 07:09:44;;;;;;;4.53;1.10;;;10.40;99.90;;;;;;5029379;23;20151;-93
2024/01/03 07:11:45;;;;;;;3.72;0.80;;;10.40;99.90;;;;;;5003507;23;20156;-94
2024/01/03 07:13:59;;;;;;;4.32;0.85;;;10.30;99.90;;;;;;5026416;23;20229;-93
2024/01/03 07:16:02;;;;;;;0.95;0.40;;;10.20;99.90;;;;;;5001593;23;20163;-92
2024/01/03 07:18:04;;;;;;;6.20;0.90;;;10.20;99.90;;;;;;5002824;23;20183;-93
2024/01/03 07:20:10;;;;;;;2.30;0.65;;;10.20;99.90;;;;;;5029368;23;20211;-93
2024/01/03 07:22:11;;;;;;;7.65;0.60;;;10.10;99.90;;;;;;5001560;23;20206;-92
2024/01/03 07:24:11;;;;;;;3.03;0.93;;;10.10;99.90;;;;;;5003833;23;20152;-94
2024/01/03 07:26:13;;;;;;;9.55;1.80;;;10.00;99.90;;;;;;5026476;23;20654;-93
2024/01/03 07:28:14;;;;;;;6.97;1.25;;;10.00;99.90;;;;;;5004594;23;20190;-93
2024/01/03 07:30:18;;;;;;;1.10;0.57;;;9.90;99.90;;;;;;5014297;23;20166;-95
2024/01/03 07:32:18;;;;;;;4.63;1.63;;;10.00;99.90;;;;;;5025568;23;20135;-92
2024/01/03 07:34:20;;;;;;;10.32;1.38;;;10.00;99.90;;;;;;5049889;23;20154;-93
2024/01/03 07:36:24;;;;;;;4.80;0.80;;;10.00;99.90;;;;;;5048851;23;20201;-93
2024/01/03 07:38:26;;;;;;;9.13;3.10;;;10.00;99.90;;;;;;5024818;23;20151;-92
2024/01/03 07:40:27;;;;;;;11.43;5.50;;;9.90;99.90;;;;;;5025170;23;20155;-93
2024/01/03 07:42:32;;;;;;;5.22;1.27;;;9.90;99.90;;;;;;5022316;23;20162;-93
2024/01/03 07:44:42;;;;;;;6.05;1.65;;;10.00;99.90;;;;;;5050246;23;20150;-94
2024/01/03 07:46:44;;;;;;;7.90;0.82;;;10.10;99.90;;;;;;5049660;23;20166;-93
2024/01/03 07:48:45;;;;;;;3.45;1.08;;;10.20;99.90;;;;;;5025466;23;20159;-92
2024/01/03 07:50:46;;;;;;;3.92;0.88;;;10.20;99.90;;;;;;5027680;23;20259;-93
2024/01/03 07:52:47;;;;;;;8.02;1.48;;;10.30;99.90;;;;;;5050589;23;20293;-93
2024/01/03 07:54:48;;;;;;;18.27;1.95;;;10.30;99.90;;;;;;5052629;23;20158;-94
2024/01/03 07:56:49;;;;;;;5.55;0.60;;;10.30;99.90;;;;;;5049400;23;20201;-93
2024/01/03 07:58:55;;;;;;;2.97;1.20;;;10.30;99.90;;;;;;5051580;23;20143;-94
2024/01/03 08:00:56;;;;;;;5.68;0.82;;;10.30;99.90;;;;;;5026028;23;20155;-94
2024/01/03 08:02:57;;;;;;;9.48;1.58;;;10.40;99.90;;;;;;5027181;23;20186;-93
2024/01/03 08:04:58;;;;;;;9.63;0.98;;;10.40;99.90;;;;;;5026036;23;20223;-92
2024/01/03 08:06:59;;;;;;;3.40;0.70;;;10.50;99.90;;;;;;5051483;23;20186;-93
2024/01/03 08:09:00;;;;;;;7.60;1.27;;;10.40;99.90;;;;;;5030132;23;20238;-93
2024/01/03 08:11:01;;;;;;;17.25;1.85;;;10.40;99.90;;;;;;5024103;23;20151;-95
2024/01/03 08:13:01;;;;;;;12.65;1.23;;;10.40;99.90;;;;;;5028181;23;20170;-94
2024/01/03 08:15:06;;;;;;;5.38;1.75;;;10.30;99.90;;;;;;5023567;23;20246;-94
2024/01/03 08:17:07;;;;;;;15.07;2.42;;;10.30;99.90;;;;;;5024773;23;20250;-93
2024/01/03 08:19:08;;;;;;;9.13;1.27;;;10.20;99.90;;;;;;5024102;23;20159;-94
2024/01/03 08:21:08;;;;;;;3.03;1.02;;;10.30;99.90;;;;;;5026673;23;20214;-93
2024/01/03 08:23:12;;;;;;;14.27;1.90;;;10.40;99.90;;;;;;5023678;23;20217;-92
2024/01/03 08:25:13;;;;;;;5.75;0.77;;;10.40;99.90;;;;;;5028399;23;20159;-94
2024/01/03 08:27:14;;;;;;;4.65;1.02;;;10.40;99.90;;;;;;5025549;23;20182;-93
2024/01/03 08:29:15;;;;;;;6.90;1.35;;;10.50;99.90;;;;;;5015266;23;20207;-91
2024/01/03 08:31:17;;;;;;;12.57;2.60;;;10.40;99.90;;;;;;5056757;23;20162;-93
2024/01/03 08:33:18;;;;;;;1.40;0.70;;;10.50;99.90;;;;;;5051022;23;20146;-94
2024/01/03 08:35:19;;;;;;;7.63;1.15;;;10.40;99.90;;;;;;5026114;23;20159;-93
2024/01/03 08:37:20;;;;;;;13.45;1.75;;;10.40;99.90;;;;;;5024215;23;20574;-96
2024/01/03 08:39:21;;;;;;;3.45;1.05;;;10.40;99.90;;;;;;5026509;23;20469;-93
2024/01/03 08:41:22;;;;;;;14.38;1.35;;;10.50;99.90;;;;;;5026838;23;20151;-92
2024/01/03 08:43:26;;;;;;;5.07;0.82;;;10.50;99.90;;;;;;5047276;23;20162;-92
2024/01/03 08:45:27;;;;;;;4.43;1.48;;;10.50;99.90;;;;;;5024749;23;20162;-93
2024/01/03 08:47:28;;;;;;;5.32;1.27;;;10.50;99.90;;;;;;5026151;23;20167;-95
2024/01/03 08:49:29;;;;;;;9.20;1.02;;;10.40;99.90;;;;;;5022802;23;20151;-93
2024/01/03 08:51:31;;;;;;;4.90;1.50;;;10.40;99.90;;;;;;5025607;23;20155;-93
2024/01/03 08:53:33;;;;;;;3.90;0.85;;;10.40;99.90;;;;;;5051769;23;20185;-94
2024/01/03 08:55:33;;;;;;;6.00;1.33;;;10.40;99.90;;;;;;5025430;23;20163;-93
2024/01/03 08:57:34;;;;;;;14.77;2.00;;;10.40;99.90;;;;;;5048299;23;20198;-95
2024/01/03 08:59:40;;;;;;;4.38;0.80;;;10.40;99.90;;;;;;5024837;23;20181;-94
2024/01/03 09:01:41;;;;;;;13.27;2.03;;;10.30;99.90;;;;;;5028101;23;20155;-93
2024/01/03 09:03:48;;;;;;;9.60;0.65;;;10.40;99.90;;;;;;5024270;23;20147;-92
2024/01/03 09:05:50;;;;;;;1.52;0.77;;;10.40;99.90;;;;;;5029495;23;20608;-92
2024/01/03 09:07:51;;;;;;;1.85;0.80;;;10.40;99.90;;;;;;5023640;23;20598;-94
2024/01/03 09:09:52;;;;;;;1.17;0.40;;;10.40;99.90;;;;;;5026033;23;20178;-93
2024/01/03 09:11:55;;;;;;;7.30;0.98;;;10.30;99.90;;;;;;5024258;23;20203;-94
2024/01/03 09:13:57;;;;;;;3.72;1.02;;;10.40;99.90;;;;;;5024411;23;20159;-94
2024/01/03 09:16:02;;;;;;;3.40;0.98;;;10.50;99.90;;;;;;5047075;23;20185;-93
2024/01/03 09:18:08;;;;;;;2.88;1.00;;;10.50;99.90;;;;;;5024829;23;20189;-94
2024/01/03 09:20:13;;;;;;;3.13;0.70;;;10.50;99.90;;;;;;5044432;23;20554;-94
2024/01/03 09:22:16;;;;;;;7.25;0.68;;;10.50;99.90;;;;;;5024935;23;20167;-93
2024/01/03 09:24:35;;;;;;;15.40;1.30;;;10.50;99.90;;;;;;5049316;23;20161;-94
2024/01/03 09:26:39;;;;;;;8.30;1.35;;;10.40;99.90;;;;;;5027075;23;20207;-93
2024/01/03 09:28:48;;;;;;;4.97;1.10;;;10.40;99.90;;;;;;5049441;23;20154;-94
2024/01/03 09:30:55;;;;;;;5.60;1.73;;;10.50;99.90;;;;;;5024692;23;20502;-94
2024/01/03 09:32:56;;;;;;;7.10;1.02;;;10.40;99.90;;;;;;5049268;23;20162;-95
2024/01/03 09:34:59;;;;;;;4.60;0.95;;;10.40;99.90;;;;;;5026483;23;20166;-93
2024/01/03 09:37:03;;;;;;;4.68;0.60;;;10.40;99.90;;;;;;5025295;23;20210;-94
2024/01/03 09:39:08;;;;;;;1.25;0.35;;;10.40;99.90;;;;;;5025683;23;20177;-93
2024/01/03 09:41:14;;;;;;;4.93;0.65;;;10.40;99.90;;;;;;5052251;23;20612;-93
2024/01/03 09:43:16;;;;;;;1.77;0.98;;;10.40;99.90;;;;;;5039563;23;20143;-91
2024/01/03 09:45:24;;;;;;;14.93;0.95;;;10.30;99.90;;;;;;5041946;23;20167;-92
2024/01/03 09:47:24;;;;;;;2.10;0.43;;;10.30;99.90;;;;;;5063627;23;20166;-94
2024/01/03 09:49:38;;;;;;;2.63;0.45;;;10.20;99.90;;;;;;5066882;23;20146;-95
2024/01/03 09:51:42;;;;;;;2.15;0.40;;;10.20;99.90;;;;;;5043470;23;20135;-94
2024/01/03 09:54:02;;;;;;;5.38;0.85;;;10.20;99.90;;;;;;5043486;23;20150;-95
2024/01/03 09:56:31;;;;;;;4.65;1.20;;;10.30;99.90;;;;;;5067595;23;20178;-93
2024/01/03 09:59:01;;;;;;;1.73;0.65;;;10.40;99.90;;;;;;5043593;23;20210;-93
2024/01/03 10:01:11;;;;;;;14.43;1.42;;;10.60;99.90;;;;;;5043474;23;20154;-93
2024/01/03 10:03:20;;;;;;;4.22;0.95;;;10.60;99.90;;;;;;5042346;23;20264;-94
2024/01/03 10:05:31;;;;;;;10.65;1.33;;;10.60;99.90;;;;;;5065980;23;20138;-92
2024/01/03 10:07:35;;;;;;;10.32;1.42;;;10.60;99.90;;;;;;5040821;23;20179;-92
2024/01/03 10:09:44;;;;;;;2.58;0.93;;;10.60;99.90;;;;;;5039356;23;20145;-93
2024/01/03 10:11:46;;;;;;;5.15;1.20;;;10.50;99.90;;;;;;5040872;23;20170;-92
2024/01/03 10:13:52;;;;;;;5.95;0.82;;;10.40;99.90;;;;;;5041353;23;20199;-93
2024/01/03 10:16:06;;;;;;;9.75;1.02;;;10.40;99.90;;;;;;5027247;23;20155;-94
2024/01/03 10:18:09;;;;;;;8.60;1.00;;;10.50;99.90;;;;;;5050950;23;20220;-95
2024/01/03 10:20:29;;;;;;;3.08;0.77;;;10.50;99.90;;;;;;5049189;23;20146;-94
2024/01/03 10:22:30;;;;;;;2.17;1.10;;;10.50;99.90;;;;;;5024165;23;20151;-93
2024/01/03 10:24:31;;;;;;;4.97;1.85;;;10.60;99.90;;;;;;5026239;23;20161;-93
2024/01/03 10:26:33;;;;;;;6.13;1.60;;;10.60;99.90;;;;;;5025666;23;20167;-93
2024/01/03 10:28:34;;;;;;;10.80;0.40;;;10.70;99.90;;;;;;5027995;23;20155;-94
2024/01/03 10:30:47;;;;;;;11.93;2.35;;;10.70;99.90;;;;;;5025061;23;20507;-95
2024/01/03 10:33:01;;;;;;;5.05;1.08;;;10.80;99.90;;;;;;5024071;23;20163;-93
2024/01/03 10:35:15;;;;;;;6.68;1.10;;;10.80;99.90;;;;;;5024132;23;20159;-94
2024/01/03 10:37:20;;;;;;;0.73;0.52;;;10.80;99.90;;;;;;5023159;23;20553;-94
2024/01/03 10:39:24;;;;;;;6.53;1.55;;;10.70;99.90;;;;;;5028380;23;20597;-94
2024/01/03 10:41:25;;;;;;;4.38;1.05;;;10.70;99.90;;;;;;5054524;23;20159;-93
2024/01/03 10:43:26;;;;;;;3.42;0.85;;;10.80;99.90;;;;;;5048616;23;20154;-92
2024/01/03 10:45:27;;;;;;;16.92;4.35;;;10.80;99.90;;;;;;5025851;23;20155;-93
2024/01/03 10:47:34;;;;;;;6.20;1.20;;;10.80;99.90;;;;;;5051228;23;20194;-94
2024/01/03 10:49:37;;;;;;;7.78;2.15;;;10.80;99.90;;;;;;5026528;23;20542;-93
2024/01/03 10:51:48;;;;;;;3.53;0.35;;;10.80;99.90;;;;;;5049353;23;20206;-94
2024/01/03 10:53:54;;;;;;;3.72;0.93;;;10.90;99.90;;;;;;5035577;23;20147;-93
2024/01/03 10:55:56;;;;;;;9.80;2.03;;;10.90;99.90;;;;;;5039257;23;20191;-94
2024/01/03 10:58:00;;;;;;;11.73;0.77;;;10.90;99.90;;;;;;5025692;23;20210;-93
2024/01/03 11:00:19;;;;;;;5.00;1.00;;;10.90;99.90;;;;;;5023712;23;20211;-94
2024/01/03 11:02:45;;;;;;;1.00;0.47;;;10.90;99.90;;;;;;5072506;23;20157;-94
2024/01/03 11:05:04;;;;;;;4.25;1.25;;;11.10;99.90;;;;;;5026966;23;20194;-92
2024/01/03 11:07:20;;;;;;;1.95;0.93;;;11.10;99.90;;;;;;5027337;23;20178;-93
2024/01/03 11:09:23;;;;;;;6.25;1.55;;;11.30;99.90;;;;;;5028789;23;20162;-92
2024/01/03 11:11:36;;;;;;;5.50;0.90;;;11.40;99.90;;;;;;5025889;23;20159;-93
2024/01/03 11:13:40;;;;;;;11.20;1.50;;;11.50;99.90;;;;;;5028457;23;20223;-96
2024/01/03 11:15:45;;;;;;;25.10;1.85;;;11.70;99.90;;;;;;5047207;23;20231;-94
2024/01/03 11:17:46;;;;;;;9.43;1.38;;;11.90;99.90;;;;;;5027642;23;20210;-92
2024/01/03 11:20:04;;;;;;;8.77;1.17;;;11.90;99.90;;;;;;5023428;23;20155;-93
2024/01/03 11:22:07;;;;;;;6.28;0.52;;;12.00;99.90;;;;;;5026098;23;20159;-93
2024/01/03 11:24:20;;;;;;;6.10;2.30;;;12.00;99.90;;;;;;5022940;23;20155;-94
2024/01/03 12:01:07;;;;;;;3.38;0.60;;;11.40;99.90;;;;;;5077888;23;20260;-95
2024/01/03 12:04:21;;;;;;;3.80;0.88;;;11.30;99.90;;;;;;5000380;23;20155;-94
2024/01/03 12:07:14;;;;;;;2.10;0.40;;;11.20;99.90;;;;;;4969618;23;20253;-96
2024/01/03 12:16:45;;;;;;;;;;;;;;;;;;;;;
2024/01/03 12:20:11;;;;;;;0.47;0.20;;;11.00;99.90;;;;;;4953764;24;20206;-96
2024/01/03 12:26:27;;;;;;;;;;;;;;;;;;;;;
2024/01/03 12:29:56;;;;;;;7.03;0.75;;;11.00;99.90;;;;;;4931814;24;20240;-96
2024/01/03 12:33:15;;;;;;;;;;;;;;;;;;;;;
2024/01/03 12:59:07;;;;;;;;;;;;;;;;;;;;;